地図

経路データ

SID SEASON NUMBER BASIN SUBBASIN NAME ISO_TIME NATURE LAT LON WMO_WIND WMO_PRES WMO_AGENCY TRACK_TYPE DIST2LAND LANDFALL IFLAG USA_AGENCY USA_ATCF_ID USA_LAT USA_LON USA_RECORD USA_STATUS USA_WIND USA_PRES USA_SSHS USA_R34_NE USA_R34_SE USA_R34_SW USA_R34_NW USA_R50_NE USA_R50_SE USA_R50_SW USA_R50_NW USA_R64_NE USA_R64_SE USA_R64_SW USA_R64_NW USA_POCI USA_ROCI USA_RMW USA_EYE TOKYO_LAT TOKYO_LON TOKYO_GRADE TOKYO_WIND TOKYO_PRES TOKYO_R50_DIR TOKYO_R50_LONG TOKYO_R50_SHORT TOKYO_R30_DIR TOKYO_R30_LONG TOKYO_R30_SHORT TOKYO_LAND CMA_LAT CMA_LON CMA_CAT CMA_WIND CMA_PRES HKO_LAT HKO_LON HKO_CAT HKO_WIND HKO_PRES NEWDELHI_LAT NEWDELHI_LON NEWDELHI_GRADE NEWDELHI_WIND NEWDELHI_PRES NEWDELHI_CI NEWDELHI_DP NEWDELHI_POCI REUNION_LAT REUNION_LON REUNION_TYPE REUNION_WIND REUNION_PRES REUNION_TNUM REUNION_CI REUNION_RMW REUNION_R34_NE REUNION_R34_SE REUNION_R34_SW REUNION_R34_NW REUNION_R50_NE REUNION_R50_SE REUNION_R50_SW REUNION_R50_NW REUNION_R64_NE REUNION_R64_SE REUNION_R64_SW REUNION_R64_NW BOM_LAT BOM_LON BOM_TYPE BOM_WIND BOM_PRES BOM_TNUM BOM_CI BOM_RMW BOM_R34_NE BOM_R34_SE BOM_R34_SW BOM_R34_NW BOM_R50_NE BOM_R50_SE BOM_R50_SW BOM_R50_NW BOM_R64_NE BOM_R64_SE BOM_R64_SW BOM_R64_NW BOM_ROCI BOM_POCI BOM_EYE BOM_POS_METHOD BOM_PRES_METHOD NADI_LAT NADI_LON NADI_CAT NADI_WIND NADI_PRES WELLINGTON_LAT WELLINGTON_LON WELLINGTON_WIND WELLINGTON_PRES DS824_LAT DS824_LON DS824_STAGE DS824_WIND DS824_PRES TD9636_LAT TD9636_LON TD9636_STAGE TD9636_WIND TD9636_PRES TD9635_LAT TD9635_LON TD9635_WIND TD9635_PRES TD9635_ROCI NEUMANN_LAT NEUMANN_LON NEUMANN_CLASS NEUMANN_WIND NEUMANN_PRES MLC_LAT MLC_LON MLC_CLASS MLC_WIND MLC_PRES USA_GUST BOM_GUST BOM_GUST_PER REUNION_GUST REUNION_GUST_PER USA_SEAHGT USA_SEARAD_NE USA_SEARAD_SE USA_SEARAD_SW USA_SEARAD_NW STORM_SPEED STORM_DIR
1948268N15126 1948 65 WP MM KIT 1948-09-24 00:00:00 TS 14.7000 125.700 main 166 139 O________OOO__ jtwc_wp WP161948 14.7000 125.700 55 0 14.7000 125.700 TC 55 14.7000 125.700 2 55 14.7000 125.700 55 995 240 12 293
1948268N15126 1948 65 WP MM KIT 1948-09-24 03:00:00 TS 14.9389 125.120 main 132 129 P________PPP__ WP161948 14.8973 125.167 57 0 14.8973 125.167 TC 57 15.0637 124.980 2 56 14.8973 125.167 57 995 240 13 294
1948268N15126 1948 65 WP MM KIT 1948-09-24 06:00:00 TS 15.2553 124.437 main 145 145 O________OPO__ jtwc_wp WP161948 15.2000 124.500 60 0 15.2000 124.500 TC 60 15.4211 124.246 2 57 15.2000 124.500 60 995 240 17 297
1948268N15126 1948 65 WP MM KIT 1948-09-24 09:00:00 TS 15.6854 123.590 main 159 54 P________PPP__ WP161948 15.6579 123.623 60 0 15.6579 123.623 TC 60 15.7680 123.490 2 58 15.6579 123.623 60 994 240 19 297
1948268N15126 1948 65 WP MM KIT 1948-09-24 12:00:00 TS 16.1000 122.700 main 54 0 O________OOO__ jtwc_wp WP161948 16.1000 122.700 60 0 16.1000 122.700 TC 60 16.1000 122.700 2 60 16.1000 122.700 60 994 240 17 292
1948268N15126 1948 65 WP MM KIT 1948-09-24 15:00:00 TS 16.3389 121.930 main 0 0 P________PPP__ WP161948 16.3142 121.949 52 0 16.3142 121.949 TC 52 16.4129 121.872 2 57 16.3142 121.949 52 994 240 16 287
1948268N15126 1948 65 WP MM KIT 1948-09-24 18:00:00 TS 16.5507 121.157 main 0 0 O________OPO__ jtwc_wp WP161948 16.5000 121.200 45 0 16.5000 121.200 TC 45 16.7027 121.027 2 55 16.5000 121.200 45 995 240 17 289
1948268N15126 1948 65 WP MM KIT 1948-09-24 21:00:00 TS 16.8792 120.268 main 15 15 P________PPP__ WP161948 16.8503 120.293 47 0 16.8503 120.293 TC 47 16.9661 120.194 2 52 16.8503 120.293 47 993 240 18 291
1948268N15126 1948 65 WP MM KIT 1948-09-25 00:00:00 TS 17.2000 119.400 main 105 105 O________OOO__ jtwc_wp WP161948 17.2000 119.400 50 0 17.2000 119.400 TC 50 17.2000 119.400 2 50 17.2000 119.400 50 992 240 16 289
1948268N15126 1948 65 WP MM KIT 1948-09-25 03:00:00 TS 17.4186 118.669 main 169 169 P________PPP__ WP161948 17.4295 118.662 52 0 17.4295 118.662 TC 52 17.3858 118.688 2 52 17.4295 118.662 52 991 240 14 286
1948268N15126 1948 65 WP MM KIT 1948-09-25 06:00:00 TS 17.5869 118.004 main 240 240 O________OPO__ jtwc_wp WP161948 17.6000 118.000 55 0 17.6000 118.000 TC 55 17.5478 118.018 2 55 17.6000 118.000 55 991 240 13 284
1948268N15126 1948 65 WP MM KIT 1948-09-25 09:00:00 TS 17.7343 117.359 main 299 299 P________PPP__ WP161948 17.7421 117.357 57 0 17.7421 117.357 TC 57 17.7109 117.363 2 57 17.7421 117.357 57 990 240 13 284
1948268N15126 1948 65 WP MM KIT 1948-09-25 12:00:00 TS 17.9000 116.700 main 375 375 O________OOO__ jtwc_wp WP161948 17.9000 116.700 60 0 17.9000 116.700 TC 60 17.9000 116.700 2 60 17.9000 116.700 60 990 240 14 287
1948268N15126 1948 65 WP MM KIT 1948-09-25 15:00:00 TS 18.1323 115.955 main 451 446 P________PPP__ WP161948 18.1275 115.957 60 0 18.1275 115.957 TC 60 18.1467 115.949 2 60 18.1275 115.957 60 989 240 15 289
1948268N15126 1948 65 WP MM KIT 1948-09-25 18:00:00 TS 18.4052 115.198 main 446 381 O________OPO__ jtwc_wp WP161948 18.4000 115.200 60 0 18.4000 115.200 TC 60 18.4207 115.191 2 60 18.4000 115.200 60 989 240 15 292
1948268N15126 1948 65 WP MM KIT 1948-09-25 21:00:00 TS 18.6909 114.473 main 381 301 P________PPP__ WP161948 18.6848 114.477 60 0 18.6848 114.477 TC 60 18.7093 114.462 2 60 18.6848 114.477 60 990 210 15 294
1948268N15126 1948 65 WP MM KIT 1948-09-26 00:00:00 TS 19.0000 113.800 main 301 233 O________OOO__ jtwc_wp WP161948 19.0000 113.800 60 0 19.0000 113.800 TC 60 19.0000 113.800 2 60 19.0000 113.800 60 991 180 14 298
1948268N15126 1948 65 WP MM KIT 1948-09-26 03:00:00 TS 19.3380 113.175 main 233 178 P________PPP__ WP161948 19.3650 113.148 60 0 19.3650 113.148 TC 60 19.2572 113.256 2 58 19.3650 113.148 60 992 180 13 301
1948268N15126 1948 65 WP MM KIT 1948-09-26 06:00:00 TS 19.6545 112.645 main 167 137 O________OPO__ jtwc_wp WP161948 19.7000 112.600 60 0 19.7000 112.600 TC 60 19.5180 112.781 2 57 19.7000 112.600 60 993 180 10 302
1948268N15126 1948 65 WP MM KIT 1948-09-26 09:00:00 TS 19.8676 112.272 main 140 106 P________PPP__ WP161948 19.8919 112.249 57 0 19.8919 112.249 TC 57 19.7949 112.340 2 56 19.8919 112.249 57 994 240 8 302
1948268N15126 1948 65 WP MM KIT 1948-09-26 12:00:00 TS 20.1000 111.900 main 106 76 O________OOO__ jtwc_wp WP161948 20.1000 111.900 55 0 20.1000 111.900 TC 55 20.1000 111.900 2 55 20.1000 111.900 55 995 300 11 304
1948268N15126 1948 65 WP MM KIT 1948-09-26 15:00:00 TS 20.4688 111.339 main 76 39 P________PPP__ WP161948 20.4779 111.308 52 0 20.4779 111.308 TC 52 20.4413 111.432 2 51 20.4779 111.308 52 996 270 13 306
1948268N15126 1948 65 WP MM KIT 1948-09-26 18:00:00 TS 20.8812 110.751 main 39 0 O________OPO__ jtwc_wp WP161948 20.9000 110.700 50 0 20.9000 110.700 TC 50 20.8120 110.938 2 47 20.9000 110.700 50 997 240 14 313
1948268N15126 1948 65 WP MM KIT 1948-09-26 21:00:00 TS 21.4152 110.237 main 0 0 P________PPP__ WP161948 21.5049 110.188 45 0 21.5049 110.188 TC 45 21.2017 110.425 2 43 21.2698 110.247 45 997 240 11 312
1948268N15126 1948 65 WP MM KIT 1948-09-27 00:00:00 TS 21.6000 109.900 main 0 0 O________OOO__ jtwc_wp WP161948 21.6000 109.900 40 0 21.6000 109.900 TC 40 21.6000 109.900 2 40 21.6000 109.900 40 998 240 10 190
1948268N15126 1948 65 WP MM KIT 1948-09-27 03:00:00 TS 20.4275 110.045 main 0 0 P________P____ WP161948 20.4275 110.045 40 0 20.4275 110.045 TC 40 2 26 174
1948268N15126 1948 65 WP MM KIT 1948-09-27 06:00:00 TS 19.0000 110.200 main 0 0 O________O____ jtwc_wp WP161948 19.0000 110.200 40 0 19.0000 110.200 TC 40 2 21 182
1948268N15126 1948 65 WP MM KIT 1948-09-27 09:00:00 TS 18.3422 109.985 main 11 10 P________P____ WP161948 18.3422 109.985 37 0 18.3422 109.985 TC 37 2 12 214
1948268N15126 1948 65 WP MM KIT 1948-09-27 12:00:00 TS 18.0000 109.500 main 22 22 O________O____ jtwc_wp WP161948 18.0000 109.500 35 0 18.0000 109.500 TC 35 13 241
1948268N15126 1948 65 WP MM KIT 1948-09-27 15:00:00 TS 17.7132 108.773 main 81 81 P________P____ WP161948 17.7132 108.773 32 -1 17.7132 108.773 TC 32 15 251
1948268N15126 1948 65 WP MM KIT 1948-09-27 18:00:00 TS 17.5000 108.000 main 105 48 O________O____ jtwc_wp WP161948 17.5000 108.000 30 -1 17.5000 108.000 TC 30 13 250
1948268N15126 1948 65 WP MM KIT 1948-09-27 21:00:00 TS 17.2495 107.463 main 43 0 P________P____ WP161948 17.2495 107.463 30 -1 17.2495 107.463 TC 30 11 242
1948268N15126 1948 65 WP MM KIT 1948-09-28 00:00:00 TS 17.0000 107.000 main 0 0 O________O____ jtwc_wp WP161948 17.0000 107.000 30 -1 17.0000 107.000 TC 30 10 241
1948268N15126 1948 65 WP MM KIT 1948-09-28 03:00:00 TS 16.7504 106.512 main 0 0 P________P____ WP161948 16.7504 106.512 30 -1 16.7504 106.512 TC 30 11 242
1948268N15126 1948 65 WP MM KIT 1948-09-28 06:00:00 TS 16.5000 106.000 main 0 O________O____ jtwc_wp WP161948 16.5000 106.000 30 -1 16.5000 106.000 TC 30 11 243

デジタル台風データ・検索

IBTrACS Databaseについて

本データベースは、米国NOAAが公開する1842年以降の世界の熱帯低気圧のベストトラックデータアーカイブInternational Best Track Archive for Climate Stewardship (IBTrACS)を、ウェブで閲覧しやすい形式に変換したものです。

最終更新日:2021-10-21